TimeCST,TemperatureF,Dew PointF,Humidity,Sea Level PressureIn,VisibilityMPH,Wind Direction,Wind SpeedMPH,Gust SpeedMPH,PrecipitationIn,Events,Conditions,WindDirDegrees,DateUTC
12:15 AM,52.3,51.1,95,29.43,7.0,SSW,3.5,-,0.03,Rain,Rain,200,2013-01-30 06:15:00
12:35 AM,51.8,50.4,95,29.44,10.0,West,11.5,-,0.04,Rain,Rain,270,2013-01-30 06:35:00
12:55 AM,45.1,43.5,94,29.45,7.0,WNW,9.2,-,0.07,Rain,Light Rain,300,2013-01-30 06:55:00
1:15 AM,42.4,40.5,93,29.47,10.0,NW,11.5,-,N/A,Rain,Light Rain,310,2013-01-30 07:15:00
1:35 AM,41.2,39.6,94,29.49,7.0,WNW,11.5,17.3,0.02,Rain,Light Rain,290,2013-01-30 07:35:00
1:55 AM,40.3,38.7,94,29.50,3.0,WNW,10.4,-,0.04,Rain,Light Rain,300,2013-01-30 07:55:00
2:15 AM,40.1,38.5,94,29.50,5.0,WNW,6.9,-,0.02,Rain,Light Rain,290,2013-01-30 08:15:00
2:35 AM,39.7,38.1,94,29.49,10.0,NW,4.6,-,0.03,Rain,Rain,320,2013-01-30 08:35:00
2:55 AM,39.4,37.9,95,29.38,7.0,East,10.4,-,0.03,Rain,Light Rain,80,2013-01-30 08:55:00
3:15 AM,39.2,37.8,95,29.39,10.0,Calm,Calm,-,N/A,,Overcast,0,2013-01-30 09:15:00
3:35 AM,39.2,37.8,95,29.37,7.0,Calm,Calm,-,N/A,,Overcast,0,2013-01-30 09:35:00
3:55 AM,39.2,38.1,96,29.36,5.0,ENE,4.6,-,N/A,,Overcast,70,2013-01-30 09:55:00
4:15 AM,39.2,37.9,95,29.37,5.0,Calm,Calm,-,N/A,,Overcast,0,2013-01-30 10:15:00
4:35 AM,39.4,38.3,96,29.38,5.0,Calm,Calm,-,N/A,,Overcast,0,2013-01-30 10:35:00
4:55 AM,39.2,38.3,97,29.38,5.0,Calm,Calm,-,N/A,,Overcast,0,2013-01-30 10:55:00
5:15 AM,39.4,38.3,96,29.36,4.0,Calm,Calm,-,N/A,Rain,Light Rain,0,2013-01-30 11:15:00
5:35 AM,39.7,38.7,96,29.35,5.0,Calm,Calm,-,N/A,Rain,Light Rain,0,2013-01-30 11:35:00
5:55 AM,39.6,38.5,96,29.35,5.0,Calm,Calm,-,0.01,Rain,Light Rain,0,2013-01-30 11:55:00
6:15 AM,40.1,38.8,95,29.33,4.0,ESE,4.6,-,0.01,Rain,Light Rain,120,2013-01-30 12:15:00
6:35 AM,40.5,39.4,96,29.37,3.0,WSW,17.3,23.0,0.05,Rain,Light Rain,250,2013-01-30 12:35:00
6:55 AM,39.2,37.6,94,29.39,4.0,West,20.7,24.2,0.06,,Overcast,260,2013-01-30 12:55:00
7:15 AM,38.3,36.5,93,29.41,4.0,West,19.6,27.6,N/A,,Overcast,270,2013-01-30 13:15:00
7:35 AM,37.6,35.8,93,29.42,5.0,West,17.3,26.5,N/A,,Overcast,260,2013-01-30 13:35:00
7:55 AM,37.4,34.9,91,29.42,10.0,West,16.1,21.9,N/A,,Overcast,270,2013-01-30 13:55:00
8:15 AM,37.0,34.0,89,29.42,10.0,West,11.5,20.7,N/A,,Overcast,270,2013-01-30 14:15:00
8:35 AM,36.9,33.8,89,29.44,10.0,West,10.4,18.4,N/A,,Overcast,260,2013-01-30 14:35:00
8:55 AM,36.5,33.3,88,29.44,10.0,WSW,11.5,16.1,N/A,,Overcast,250,2013-01-30 14:55:00
9:15 AM,36.1,33.1,89,29.44,10.0,West,13.8,18.4,N/A,,Overcast,270,2013-01-30 15:15:00
9:35 AM,36.1,32.9,88,29.45,10.0,West,17.3,21.9,N/A,,Overcast,260,2013-01-30 15:35:00
9:55 AM,36.0,32.7,88,29.45,10.0,West,11.5,17.3,N/A,,Overcast,280,2013-01-30 15:55:00
10:15 AM,34.9,32.0,89,29.46,10.0,WNW,15.0,19.6,N/A,,Overcast,290,2013-01-30 16:15:00
10:35 AM,33.8,30.7,89,29.48,10.0,West,16.1,24.2,N/A,,Overcast,280,2013-01-30 16:35:00
10:55 AM,33.6,30.4,88,29.49,10.0,West,11.5,21.9,N/A,,Overcast,270,2013-01-30 16:55:00
11:15 AM,33.1,29.7,87,29.49,10.0,WNW,13.8,27.6,N/A,,Overcast,290,2013-01-30 17:15:00
11:35 AM,33.1,29.8,88,29.50,10.0,West,12.7,23.0,N/A,,Overcast,280,2013-01-30 17:35:00
11:55 AM,32.7,28.9,86,29.49,10.0,West,19.6,31.1,N/A,,Overcast,280,2013-01-30 17:55:00
12:15 PM,32.7,27.7,82,29.51,10.0,WNW,17.3,27.6,N/A,,Overcast,290,2013-01-30 18:15:00
12:35 PM,32.5,28.0,83,29.50,10.0,West,19.6,32.2,N/A,,Overcast,280,2013-01-30 18:35:00
12:55 PM,32.0,27.3,83,29.51,10.0,WNW,17.3,28.8,N/A,,Overcast,290,2013-01-30 18:55:00
1:15 PM,31.6,25.5,78,29.52,10.0,WNW,19.6,29.9,N/A,,Overcast,300,2013-01-30 19:15:00
1:35 PM,31.3,24.4,76,29.54,10.0,WNW,23.0,32.2,N/A,,Overcast,290,2013-01-30 19:35:00
1:55 PM,30.7,23.9,76,29.55,10.0,NW,21.9,32.2,N/A,,Overcast,320,2013-01-30 19:55:00
2:15 PM,30.6,23.9,76,29.57,10.0,North,19.6,28.8,N/A,Snow,Light Snow,350,2013-01-30 20:15:00
2:35 PM,30.6,24.6,79,29.58,10.0,North,17.3,26.5,N/A,Snow,Light Snow,350,2013-01-30 20:35:00
2:55 PM,29.8,23.5,77,29.59,10.0,North,18.4,27.6,N/A,Snow,Light Snow,350,2013-01-30 20:55:00
3:15 PM,29.8,22.8,75,29.60,10.0,North,17.3,24.2,N/A,,Overcast,350,2013-01-30 21:15:00
3:35 PM,29.3,22.5,76,29.62,10.0,North,19.6,32.2,N/A,Snow,Light Snow,350,2013-01-30 21:35:00
3:55 PM,29.1,21.7,74,29.64,10.0,North,16.1,26.5,N/A,,Overcast,350,2013-01-30 21:55:00
4:15 PM,29.3,23.0,77,29.66,10.0,NNW,15.0,26.5,N/A,,Overcast,340,2013-01-30 22:15:00
4:35 PM,28.4,21.0,74,29.68,10.0,North,15.0,29.9,N/A,,Overcast,350,2013-01-30 22:35:00
4:55 PM,28.2,20.3,72,29.69,10.0,North,18.4,31.1,N/A,,Overcast,350,2013-01-30 22:55:00
5:15 PM,27.9,20.8,75,29.70,7.0,North,20.7,28.8,N/A,Snow,Light Snow,350,2013-01-30 23:15:00
5:35 PM,27.9,19.8,72,29.71,10.0,North,12.7,27.6,N/A,,Overcast,350,2013-01-30 23:35:00
5:55 PM,28.4,21.2,74,29.72,10.0,North,16.1,23.0,N/A,Snow,Light Snow,350,2013-01-30 23:55:00
6:15 PM,28.2,18.5,67,29.74,10.0,North,18.4,33.4,N/A,,Overcast,350,2013-01-31 00:15:00
6:35 PM,28.0,18.5,67,29.75,10.0,North,17.3,28.8,N/A,,Overcast,350,2013-01-31 00:35:00
6:55 PM,27.9,18.3,67,29.76,10.0,North,23.0,29.9,N/A,,Overcast,350,2013-01-31 00:55:00
7:15 PM,27.9,18.5,68,29.77,10.0,North,18.4,24.2,N/A,,Overcast,350,2013-01-31 01:15:00
7:35 PM,27.5,17.1,65,29.78,10.0,North,15.0,26.5,N/A,,Overcast,350,2013-01-31 01:35:00
7:55 PM,27.5,17.4,66,29.78,10.0,North,21.9,29.9,N/A,,Overcast,350,2013-01-31 01:55:00
8:15 PM,27.1,18.5,70,29.80,7.0,North,16.1,27.6,N/A,Snow,Light Snow,350,2013-01-31 02:15:00
8:35 PM,27.3,16.3,63,29.81,10.0,North,15.0,27.6,N/A,,Overcast,350,2013-01-31 02:35:00
8:55 PM,27.0,17.2,67,29.82,10.0,North,11.5,26.5,N/A,,Overcast,350,2013-01-31 02:55:00
9:15 PM,26.8,16.5,65,29.82,10.0,North,19.6,28.8,N/A,,Overcast,350,2013-01-31 03:15:00
9:35 PM,26.4,19.2,74,29.83,5.0,North,18.4,25.3,N/A,Snow,Light Snow,360,2013-01-31 03:35:00
9:55 PM,26.2,18.3,72,29.84,10.0,North,16.1,25.3,N/A,,Overcast,360,2013-01-31 03:55:00
10:15 PM,26.4,17.6,69,29.85,10.0,North,13.8,26.5,N/A,,Overcast,360,2013-01-31 04:15:00
10:35 PM,26.2,17.8,70,29.86,7.0,North,18.4,24.2,N/A,Snow,Light Snow,360,2013-01-31 04:35:00
10:55 PM,25.9,16.7,68,29.87,7.0,North,18.4,29.9,N/A,Snow,Light Snow,360,2013-01-31 04:55:00
11:15 PM,25.7,16.3,68,29.88,10.0,North,13.8,21.9,N/A,Snow,Light Snow,360,2013-01-31 05:15:00
11:35 PM,25.7,14.9,64,29.88,10.0,North,13.8,23.0,N/A,,Overcast,360,2013-01-31 05:35:00
11:55 PM,25.5,14.7,64,29.89,10.0,North,13.8,21.9,N/A,,Mostly Cloudy,360,2013-01-31 05:55:00